Scf Navigator — WDD6460 — position and weather

sailwx.info

Track history (hours):
 
Tides and Currents Weather Stations Pressure Air Temp Water Temp Dewpoint Dewpoint Depression Visibility Wind Speed Wind Dir Waves Ship Positions

Scf Navigator

Owner: SCF WAXLER MARINE LLC, St Rose, LA. More information available from US FCC via Universal Licensing System and Coast Guard Vessel Documentation Center.

Last reported at 2017-Sep-24 15:28 UTC. Time now 2017-Sep-24 15:55 UTC.
Position N 29°32' W 090°51'.

Length 34 m; draft 2.7 m.

Type: Ship (hazmat cat A). MMSI: 367173230.

Date/timePositionNaut miles runAvg speedWind from/ knotsBaromVisibWave heightAir tempDewpointWater temp
2017-Sep-24 15:28N 29°32' W 090°51'2 5.0
2017-Sep-24 15:00N 29°32' W 090°49'2 4.8
2017-Sep-24 14:30N 29°32' W 090°46'2 4.3
2017-Sep-24 14:00N 29°34' W 090°44'2 3.1
2017-Sep-24 13:30N 29°35' W 090°43'1 2.9
2017-Sep-24 13:00N 29°36' W 090°43'1 2.7
2017-Sep-24 12:30N 29°36' W 090°41'2 3.6
2017-Sep-24 12:00N 29°36' W 090°39'2 4.3
2017-Sep-24 11:30N 29°35' W 090°37'2 4.0
2017-Sep-24 11:00N 29°34' W 090°35'2 4.3
2017-Sep-24 10:30N 29°34' W 090°32'2 4.5
2017-Sep-24 10:00N 29°34' W 090°30'2 4.4
2017-Sep-24 09:30N 29°33' W 090°27'2 4.5
2017-Sep-24 09:00N 29°33' W 090°25'  
2017-Sep-19 04:17N 31°50' W 091°21'1010.1
2017-Sep-19 03:18N 31°56' W 091°12'410.2
2017-Sep-19 02:57N 31°59' W 091°09'510.6
2017-Sep-19 02:30N 32°01' W 091°04'510.4
2017-Sep-19 02:00N 32°06' W 091°06'4 8.1
2017-Sep-19 01:30N 32°07' W 091°01'611.6
2017-Sep-19 01:00N 32°13' W 090°59'611.3
2017-Sep-19 00:30N 32°17' W 090°56'3 6.5
2017-Sep-19 00:00N 32°21' W 090°55'4 8.1
2017-Sep-18 23:31N 32°21' W 091°00'4 7.8
2017-Sep-18 23:00N 32°25' W 091°01'4 8.4
2017-Sep-18 22:30N 32°27' W 091°05'4 7.4
2017-Sep-18 21:58N 32°31' W 091°07'4 7.9
2017-Sep-18 21:30N 32°34' W 091°07'5 7.9
2017-Sep-18 20:50N 32°40' W 091°08'  
Track history (hours):
 
Tides and Currents Weather Stations Pressure Air Temp Water Temp Dewpoint Dewpoint Depression Visibility Wind Speed Wind Dir Waves Ship Positions

Scf Navigator

Owner: SCF WAXLER MARINE LLC, St Rose, LA. More information available from US FCC via Universal Licensing System and Coast Guard Vessel Documentation Center.

Last reported at 2017-Sep-24 15:28 UTC. Time now 2017-Sep-24 15:55 UTC.
Position N 29°32' W 090°51'.

Length 34 m; draft 2.7 m.

Type: Ship (hazmat cat A). MMSI: 367173230.

Date/timePositionNaut miles runAvg speedWind from/ knotsBaromVisibWave heightAir tempDewpointWater temp
2017-Sep-24 15:28N 29°32' W 090°51'2 5.0
2017-Sep-24 15:00N 29°32' W 090°49'2 4.8
2017-Sep-24 14:30N 29°32' W 090°46'2 4.3
2017-Sep-24 14:00N 29°34' W 090°44'2 3.1
2017-Sep-24 13:30N 29°35' W 090°43'1 2.9
2017-Sep-24 13:00N 29°36' W 090°43'1 2.7
2017-Sep-24 12:30N 29°36' W 090°41'2 3.6
2017-Sep-24 12:00N 29°36' W 090°39'2 4.3
2017-Sep-24 11:30N 29°35' W 090°37'2 4.0
2017-Sep-24 11:00N 29°34' W 090°35'2 4.3
2017-Sep-24 10:30N 29°34' W 090°32'2 4.5
2017-Sep-24 10:00N 29°34' W 090°30'2 4.4
2017-Sep-24 09:30N 29°33' W 090°27'2 4.5
2017-Sep-24 09:00N 29°33' W 090°25'  
2017-Sep-19 04:17N 31°50' W 091°21'1010.1
2017-Sep-19 03:18N 31°56' W 091°12'410.2
2017-Sep-19 02:57N 31°59' W 091°09'510.6
2017-Sep-19 02:30N 32°01' W 091°04'510.4
2017-Sep-19 02:00N 32°06' W 091°06'4 8.1
2017-Sep-19 01:30N 32°07' W 091°01'611.6
2017-Sep-19 01:00N 32°13' W 090°59'611.3
2017-Sep-19 00:30N 32°17' W 090°56'3 6.5
2017-Sep-19 00:00N 32°21' W 090°55'4 8.1
2017-Sep-18 23:31N 32°21' W 091°00'4 7.8
2017-Sep-18 23:00N 32°25' W 091°01'4 8.4
2017-Sep-18 22:30N 32°27' W 091°05'4 7.4
2017-Sep-18 21:58N 32°31' W 091°07'4 7.9
2017-Sep-18 21:30N 32°34' W 091°07'5 7.9
2017-Sep-18 20:50N 32°40' W 091°08'  

Dump ship's entire track history